Thunder radar more information blitzortung!


Radar de pluja more information rain snow radar


Visita la nostra xarxa de llocs de meteo:

Template documentation
and downloads

And another site



No particular awareness of the weather is required.    There are no Weather-warnings

Pagina Historial Weather Underground text

Diari Resum Juliol 28, 2017 Unitats:  Tant    Imperial   Mètric
« Previous Dia
SegĂźent Dia »
Diari Setmana Mensual Anual Personalitzada
  Maxima: Minima: Media:
Temperatura: 87.4 °F /  30.8 °C 69.1 °F /  20.6 °C 79 °F /  26.1 °C
Punt de rosada: 70.2 °F /  21.2 °C 63.1 °F /  17.3 °C 65.5 °F /  18.6 °C
Humitat: 85 % 47 % 65 %
Wind Speed: 16.1 mph /  25.9 km/h - 5.1 mph /  8.2 km/h
RĂ fegues de vent: 16.1 mph /  25.9 km/h - -
Vent:- - ESE
Pression baro: 30 in /  1015.8 hPa 29.9 in /  1012.8 hPa -
Precipitacions: 0 in /  0.0 mm    
Historical Graphs
 
 
Dades de taula per Juliol 28, 2017
Temps Temperatura Punt de rosada Pression baro Vent Wind Speed RĂ fegues de vent Humitat Rainfall Rate (Hourly)
00:03 75.6 °F /  24.2 °C 66.4 °F /  19.1 °C 29.9 in /  1012.8 hPa Calm     73 % 0 in /  0.0 mm
00:05 71.1 °F /  21.7 °C 65.7 °F /  18.7 °C 29.9 in /  1013.8 hPa Calm     83 % 0 in /  0.0 mm
00:08 75.6 °F /  24.2 °C 66.4 °F /  19.1 °C 29.9 in /  1012.8 hPa WSW 1.6 mph /  2.6 km/h 1.6 mph /  2.6 km/h 73 % 0 in /  0.0 mm
00:13 75.6 °F /  24.2 °C 66.4 °F /  19.1 °C 29.9 in /  1012.8 hPa WSW 1.6 mph /  2.6 km/h 1.6 mph /  2.6 km/h 73 % 0 in /  0.0 mm
00:15 70.9 °F /  21.6 °C 65.5 °F /  18.6 °C 29.9 in /  1013.8 hPa Calm     83 % 0 in /  0.0 mm
00:18 75.4 °F /  24.1 °C 66.6 °F /  19.2 °C 29.9 in /  1012.8 hPa WSW 1.2 mph /  1.9 km/h 1.2 mph /  1.9 km/h 74 % 0 in /  0.0 mm
00:23 75.4 °F /  24.1 °C 66.6 °F /  19.2 °C 29.9 in /  1012.8 hPa Calm     74 % 0 in /  0.0 mm
00:25 70.9 °F /  21.6 °C 65.8 °F /  18.8 °C 29.9 in /  1013.8 hPa Calm     84 % 0 in /  0.0 mm
00:28 75.2 °F /  24.0 °C 66.7 °F /  19.3 °C 29.9 in /  1012.8 hPa Calm     75 % 0 in /  0.0 mm
00:33 75.2 °F /  24.0 °C 66.4 °F /  19.1 °C 29.9 in /  1012.8 hPa WSW 1.2 mph /  1.9 km/h 1.2 mph /  1.9 km/h 74 % 0 in /  0.0 mm
00:35 70.7 °F /  21.5 °C 65.7 °F /  18.7 °C 30 in /  1014.8 hPa Calm     84 % 0 in /  0.0 mm
00:38 75 °F /  23.9 °C 66.6 °F /  19.2 °C 29.9 in /  1012.8 hPa WSW 1.2 mph /  1.9 km/h 1.2 mph /  1.9 km/h 75 % 0 in /  0.0 mm
00:43 74.8 °F /  23.8 °C 66.4 °F /  19.1 °C 29.9 in /  1012.8 hPa Calm     75 % 0 in /  0.0 mm
00:45 70.5 °F /  21.4 °C 65.5 °F /  18.6 °C 30 in /  1014.8 hPa Calm     84 % 0 in /  0.0 mm
00:48 74.8 °F /  23.8 °C 66.7 °F /  19.3 °C 29.9 in /  1012.8 hPa Calm     76 % 0 in /  0.0 mm
00:49 74.8 °F /  23.8 °C 66.7 °F /  19.3 °C 29.9 in /  1013.8 hPa Calm     76 % 0 in /  0.0 mm
00:54 74.7 °F /  23.7 °C 66.6 °F /  19.2 °C 29.9 in /  1013.8 hPa Calm     76 % 0 in /  0.0 mm
00:55 70.5 °F /  21.4 °C 65.8 °F /  18.8 °C 29.9 in /  1013.8 hPa Calm     85 % 0 in /  0.0 mm
00:59 74.8 °F /  23.8 °C 66.7 °F /  19.3 °C 29.9 in /  1013.8 hPa West 2.3 mph /  3.7 km/h 2.3 mph /  3.7 km/h 76 % 0 in /  0.0 mm
01:04 74.8 °F /  23.8 °C 66.7 °F /  19.3 °C 29.9 in /  1012.8 hPa West 1.2 mph /  1.9 km/h   76 % 0 in /  0.0 mm
01:05 70.5 °F /  21.4 °C 65.8 °F /  18.8 °C 29.9 in /  1013.8 hPa Calm   1 mph /  1.6 km/h 85 % 0 in /  0.0 mm
01:09 74.7 °F /  23.7 °C 66.9 °F /  19.4 °C 29.9 in /  1012.8 hPa Calm     77 % 0 in /  0.0 mm
01:14 74.7 °F /  23.7 °C 66.9 °F /  19.4 °C 29.9 in /  1012.8 hPa West 1.4 mph /  2.3 km/h 1.4 mph /  2.3 km/h 77 % 0 in /  0.0 mm
01:15 70.5 °F /  21.4 °C 65.8 °F /  18.8 °C 29.9 in /  1013.8 hPa ENE 1 mph /  1.6 km/h 2 mph /  3.2 km/h 85 % 0 in /  0.0 mm
01:19 74.3 °F /  23.5 °C 66.6 °F /  19.2 °C 29.9 in /  1013.8 hPa West 1.2 mph /  1.9 km/h 1.2 mph /  1.9 km/h 77 % 0 in /  0.0 mm
01:24 74.3 °F /  23.5 °C 66.6 °F /  19.2 °C 29.9 in /  1013.8 hPa ENE 2.3 mph /  3.7 km/h 2.3 mph /  3.7 km/h 77 % 0 in /  0.0 mm
01:25 74.3 °F /  23.5 °C 66.6 °F /  19.2 °C 29.9 in /  1013.8 hPa North 1 mph /  1.6 km/h 2 mph /  3.2 km/h 77 % 0 in /  0.0 mm
01:30 73.9 °F /  23.3 °C 66.4 °F /  19.1 °C 29.9 in /  1013.8 hPa Calm   2 mph /  3.2 km/h 77 % 0 in /  0.0 mm
01:35 70.5 °F /  21.4 °C 65.5 °F /  18.6 °C 30 in /  1014.8 hPa Calm   3 mph /  4.8 km/h 84 % 0 in /  0.0 mm
01:45 70.5 °F /  21.4 °C 65.5 °F /  18.6 °C 30 in /  1014.8 hPa Calm   1 mph /  1.6 km/h 84 % 0 in /  0.0 mm
01:55 70.7 °F /  21.5 °C 65.7 °F /  18.7 °C 30 in /  1014.8 hPa Calm     84 % 0 in /  0.0 mm
02:05 70.7 °F /  21.5 °C 65.7 °F /  18.7 °C 30 in /  1014.8 hPa NW 1 mph /  1.6 km/h 1 mph /  1.6 km/h 84 % 0 in /  0.0 mm
02:15 70.9 °F /  21.6 °C 65.8 °F /  18.8 °C 30 in /  1014.8 hPa West 1 mph /  1.6 km/h 1 mph /  1.6 km/h 84 % 0 in /  0.0 mm
02:25 70.7 °F /  21.5 °C 65.7 °F /  18.7 °C 30 in /  1014.8 hPa Calm   2 mph /  3.2 km/h 84 % 0 in /  0.0 mm
02:35 70.7 °F /  21.5 °C 65.7 °F /  18.7 °C 30 in /  1014.8 hPa WSW 1 mph /  1.6 km/h 2 mph /  3.2 km/h 84 % 0 in /  0.0 mm
02:45 70.7 °F /  21.5 °C 65.7 °F /  18.7 °C 30 in /  1014.8 hPa SW 1 mph /  1.6 km/h 2 mph /  3.2 km/h 84 % 0 in /  0.0 mm
02:55 71.1 °F /  21.7 °C 66.4 °F /  19.1 °C 30 in /  1015.8 hPa SW 1 mph /  1.6 km/h 2 mph /  3.2 km/h 85 % 0 in /  0.0 mm
03:05 71.4 °F /  21.9 °C 66.7 °F /  19.3 °C 30 in /  1014.8 hPa SW 1 mph /  1.6 km/h 2 mph /  3.2 km/h 85 % 0 in /  0.0 mm
03:15 72 °F /  22.2 °C 67.3 °F /  19.6 °C 30 in /  1014.8 hPa Calm   1 mph /  1.6 km/h 85 % 0 in /  0.0 mm
03:25 72.5 °F /  22.5 °C 67.6 °F /  19.8 °C 30 in /  1015.8 hPa Calm   2 mph /  3.2 km/h 85 % 0 in /  0.0 mm
03:35 73.2 °F /  22.9 °C 68.2 °F /  20.1 °C 30 in /  1015.8 hPa South 1 mph /  1.6 km/h 2 mph /  3.2 km/h 84 % 0 in /  0.0 mm
03:45 74.1 °F /  23.4 °C 68.4 °F /  20.2 °C 30 in /  1015.8 hPa SSW 1 mph /  1.6 km/h 2 mph /  3.2 km/h 82 % 0 in /  0.0 mm
03:55 75 °F /  23.9 °C 68.7 °F /  20.4 °C 30 in /  1015.8 hPa Calm   2 mph /  3.2 km/h 81 % 0 in /  0.0 mm
04:05 76.1 °F /  24.5 °C 69.4 °F /  20.8 °C 30 in /  1015.8 hPa SSE 1 mph /  1.6 km/h 2 mph /  3.2 km/h 80 % 0 in /  0.0 mm
04:15 76.8 °F /  24.9 °C 69.4 °F /  20.8 °C 30 in /  1015.8 hPa ESE 2 mph /  3.2 km/h 3 mph /  4.8 km/h 78 % 0 in /  0.0 mm
04:25 77.2 °F /  25.1 °C 69.1 °F /  20.6 °C 30 in /  1015.8 hPa East 2 mph /  3.2 km/h 3 mph /  4.8 km/h 76 % 0 in /  0.0 mm
04:35 76.8 °F /  24.9 °C 68.7 °F /  20.4 °C 30 in /  1015.8 hPa East 2 mph /  3.2 km/h 4 mph /  6.4 km/h 76 % 0 in /  0.0 mm
04:45 77.7 °F /  25.4 °C 69.4 °F /  20.8 °C 30 in /  1015.8 hPa ESE 2 mph /  3.2 km/h 4 mph /  6.4 km/h 76 % 0 in /  0.0 mm
04:55 78.3 °F /  25.7 °C 69.6 °F /  20.9 °C 30 in /  1015.8 hPa ESE 3 mph /  4.8 km/h 4 mph /  6.4 km/h 75 % 0 in /  0.0 mm
05:05 79 °F /  26.1 °C 69.6 °F /  20.9 °C 30 in /  1015.8 hPa East 2 mph /  3.2 km/h 5 mph /  8.0 km/h 73 % 0 in /  0.0 mm
05:15 80.1 °F /  26.7 °C 70.2 °F /  21.2 °C 30 in /  1015.8 hPa East 3 mph /  4.8 km/h 4 mph /  6.4 km/h 72 % 0 in /  0.0 mm
05:25 81.3 °F /  27.4 °C 70.2 °F /  21.2 °C 30 in /  1015.8 hPa East 2 mph /  3.2 km/h 5 mph /  8.0 km/h 69 % 0 in /  0.0 mm
05:35 80.8 °F /  27.1 °C 69.3 °F /  20.7 °C 30 in /  1015.8 hPa ESE 1 mph /  1.6 km/h 5 mph /  8.0 km/h 68 % 0 in /  0.0 mm
05:45 81.9 °F /  27.7 °C 69.4 °F /  20.8 °C 30 in /  1015.8 hPa ESE 3 mph /  4.8 km/h 3 mph /  4.8 km/h 66 % 0 in /  0.0 mm
05:55 81.7 °F /  27.6 °C 68.7 °F /  20.4 °C 30 in /  1015.8 hPa ENE 1 mph /  1.6 km/h 6 mph /  9.7 km/h 65 % 0 in /  0.0 mm
06:05 82.9 °F /  28.3 °C 69.4 °F /  20.8 °C 30 in /  1015.8 hPa ENE 3 mph /  4.8 km/h 5 mph /  8.0 km/h 64 % 0 in /  0.0 mm
06:15 83.3 °F /  28.5 °C 68.9 °F /  20.5 °C 30 in /  1015.8 hPa ESE 1 mph /  1.6 km/h 6 mph /  9.7 km/h 62 % 0 in /  0.0 mm
06:25 83.8 °F /  28.8 °C 69.4 °F /  20.8 °C 30 in /  1015.8 hPa Calm   3 mph /  4.8 km/h 62 % 0 in /  0.0 mm
06:35 84.4 °F /  29.1 °C 69.4 °F /  20.8 °C 30 in /  1015.8 hPa SW 2 mph /  3.2 km/h 3 mph /  4.8 km/h 61 % 0 in /  0.0 mm
06:45 84.4 °F /  29.1 °C 69.1 °F /  20.6 °C 30 in /  1015.8 hPa WSW 2 mph /  3.2 km/h 4 mph /  6.4 km/h 60 % 0 in /  0.0 mm
06:50 84.9 °F /  29.4 °C 69.1 °F /  20.6 °C 30 in /  1015.8 hPa WSW 3 mph /  4.8 km/h 3 mph /  4.8 km/h 59 % 0 in /  0.0 mm
06:55 85.1 °F /  29.5 °C 68.2 °F /  20.1 °C 30 in /  1015.8 hPa WSW 3 mph /  4.8 km/h 3 mph /  4.8 km/h 57 % 0 in /  0.0 mm
07:00 84.9 °F /  29.4 °C 67.5 °F /  19.7 °C 30 in /  1015.8 hPa SSE 3 mph /  4.8 km/h 3 mph /  4.8 km/h 56 % 0 in /  0.0 mm
12:01 84.7 °F /  29.3 °C 66.7 °F /  19.3 °C 30 in /  1015.8 hPa SSE 3.5 mph /  5.6 km/h 4.5 mph /  7.2 km/h 55 % 0 in /  0.0 mm
12:06 84.4 °F /  29.1 °C 66.4 °F /  19.1 °C 30 in /  1015.8 hPa South 6.9 mph /  11.1 km/h 6.9 mph /  11.1 km/h 55 % 0 in /  0.0 mm
12:11 84.2 °F /  29.0 °C 65.8 °F /  18.8 °C 30 in /  1015.8 hPa ESE 6.2 mph /  10.0 km/h 6.2 mph /  10.0 km/h 54 % 0 in /  0.0 mm
12:16 84.9 °F /  29.4 °C 66.4 °F /  19.1 °C 30 in /  1015.8 hPa East 5.6 mph /  9.0 km/h 5.6 mph /  9.0 km/h 54 % 0 in /  0.0 mm
12:21 84.9 °F /  29.4 °C 65.8 °F /  18.8 °C 30 in /  1015.8 hPa East 10.4 mph /  16.7 km/h 10.4 mph /  16.7 km/h 53 % 0 in /  0.0 mm
12:26 85.3 °F /  29.6 °C 66.2 °F /  19.0 °C 30 in /  1015.8 hPa ESE 6.4 mph /  10.3 km/h 6.4 mph /  10.3 km/h 53 % 0 in /  0.0 mm
12:31 85.3 °F /  29.6 °C 65.7 °F /  18.7 °C 30 in /  1015.8 hPa ESE 8.7 mph /  14.0 km/h 8.7 mph /  14.0 km/h 52 % 0 in /  0.0 mm
12:36 84.4 °F /  29.1 °C 64.8 °F /  18.2 °C 30 in /  1015.8 hPa ENE 5.8 mph /  9.3 km/h 5.8 mph /  9.3 km/h 52 % 0 in /  0.0 mm
12:41 84.4 °F /  29.1 °C 64.8 °F /  18.2 °C 30 in /  1015.8 hPa ESE 9.2 mph /  14.8 km/h 9.2 mph /  14.8 km/h 52 % 0 in /  0.0 mm
12:46 84.7 °F /  29.3 °C 65.1 °F /  18.4 °C 30 in /  1015.8 hPa South 9.4 mph /  15.1 km/h 9.4 mph /  15.1 km/h 52 % 0 in /  0.0 mm
12:51 85.1 °F /  29.5 °C 64.9 °F /  18.3 °C 30 in /  1014.8 hPa ESE 8.5 mph /  13.7 km/h 8.5 mph /  13.7 km/h 51 % 0 in /  0.0 mm
12:56 85.1 °F /  29.5 °C 65.5 °F /  18.6 °C 30 in /  1014.8 hPa SE 8.1 mph /  13.0 km/h 8.1 mph /  13.0 km/h 52 % 0 in /  0.0 mm
13:01 86.5 °F /  30.3 °C 66.4 °F /  19.1 °C 30 in /  1014.8 hPa ESE 7.6 mph /  12.2 km/h 7.6 mph /  12.2 km/h 51 % 0 in /  0.0 mm
13:06 86.2 °F /  30.1 °C 65.5 °F /  18.6 °C 30 in /  1014.8 hPa ENE 9.2 mph /  14.8 km/h 9.2 mph /  14.8 km/h 50 % 0 in /  0.0 mm
13:11 86 °F /  30.0 °C 64.6 °F /  18.1 °C 30 in /  1014.8 hPa ESE 8.5 mph /  13.7 km/h 8.5 mph /  13.7 km/h 49 % 0 in /  0.0 mm
13:17 85.3 °F /  29.6 °C 64.6 °F /  18.1 °C 30 in /  1014.8 hPa East 12.5 mph /  20.1 km/h 12.5 mph /  20.1 km/h 50 % 0 in /  0.0 mm
13:22 85.3 °F /  29.6 °C 64.6 °F /  18.1 °C 30 in /  1014.8 hPa ESE 10.9 mph /  17.5 km/h 10.9 mph /  17.5 km/h 50 % 0 in /  0.0 mm
13:27 86.5 °F /  30.3 °C 65.1 °F /  18.4 °C 30 in /  1014.8 hPa ESE 8.1 mph /  13.0 km/h 8.1 mph /  13.0 km/h 49 % 0 in /  0.0 mm
13:32 86.2 °F /  30.1 °C 64.8 °F /  18.2 °C 30 in /  1014.8 hPa SE 9.2 mph /  14.8 km/h 9.2 mph /  14.8 km/h 49 % 0 in /  0.0 mm
13:37 85.8 °F /  29.9 °C 64.6 °F /  18.1 °C 30 in /  1014.8 hPa ESE 10.4 mph /  16.7 km/h 10.4 mph /  16.7 km/h 49 % 0 in /  0.0 mm
13:42 86.4 °F /  30.2 °C 64.9 °F /  18.3 °C 30 in /  1014.8 hPa ESE 11.8 mph /  19.0 km/h 11.8 mph /  19.0 km/h 49 % 0 in /  0.0 mm
13:47 85.8 °F /  29.9 °C 64.9 °F /  18.3 °C 30 in /  1014.8 hPa South 6.9 mph /  11.1 km/h 6.9 mph /  11.1 km/h 50 % 0 in /  0.0 mm
13:52 86.7 °F /  30.4 °C 65.8 °F /  18.8 °C 29.9 in /  1013.8 hPa SE 8.1 mph /  13.0 km/h 8.1 mph /  13.0 km/h 50 % 0 in /  0.0 mm
13:57 86.4 °F /  30.2 °C 65.5 °F /  18.6 °C 29.9 in /  1013.8 hPa ESE 9.2 mph /  14.8 km/h 9.2 mph /  14.8 km/h 50 % 0 in /  0.0 mm
14:02 86 °F /  30.0 °C 64.6 °F /  18.1 °C 29.9 in /  1013.8 hPa ESE 12.7 mph /  20.4 km/h 12.7 mph /  20.4 km/h 49 % 0 in /  0.0 mm
14:07 85.3 °F /  29.6 °C 64.6 °F /  18.1 °C 29.9 in /  1013.8 hPa ESE 8.1 mph /  13.0 km/h 8.1 mph /  13.0 km/h 50 % 0 in /  0.0 mm
14:12 84.9 °F /  29.4 °C 64.2 °F /  17.9 °C 29.9 in /  1013.8 hPa East 15 mph /  24.1 km/h 15 mph /  24.1 km/h 50 % 0 in /  0.0 mm
14:17 84.7 °F /  29.3 °C 64 °F /  17.8 °C 29.9 in /  1013.8 hPa ESE 11.5 mph /  18.5 km/h 11.5 mph /  18.5 km/h 50 % 0 in /  0.0 mm
14:22 85.1 °F /  29.5 °C 64.4 °F /  18.0 °C 29.9 in /  1013.8 hPa ESE 10.5 mph /  16.9 km/h 10.5 mph /  16.9 km/h 50 % 0 in /  0.0 mm
14:27 85.6 °F /  29.8 °C 64.9 °F /  18.3 °C 29.9 in /  1013.8 hPa East 6.4 mph /  10.3 km/h 6.4 mph /  10.3 km/h 50 % 0 in /  0.0 mm
14:32 86 °F /  30.0 °C 64.6 °F /  18.1 °C 29.9 in /  1013.8 hPa ESE 8.1 mph /  13.0 km/h 8.1 mph /  13.0 km/h 49 % 0 in /  0.0 mm
14:37 85.8 °F /  29.9 °C 64.6 °F /  18.1 °C 29.9 in /  1013.8 hPa East 9.2 mph /  14.8 km/h 9.2 mph /  14.8 km/h 49 % 0 in /  0.0 mm
14:42 86 °F /  30.0 °C 64.6 °F /  18.1 °C 29.9 in /  1013.8 hPa ENE 6.9 mph /  11.1 km/h 6.9 mph /  11.1 km/h 49 % 0 in /  0.0 mm
14:47 86 °F /  30.0 °C 64.6 °F /  18.1 °C 29.9 in /  1013.8 hPa ESE 6 mph /  9.7 km/h 6.4 mph /  10.3 km/h 49 % 0 in /  0.0 mm
14:52 85.8 °F /  29.9 °C 64.9 °F /  18.3 °C 30 in /  1014.8 hPa ENE 9.7 mph /  15.6 km/h 9.7 mph /  15.6 km/h 50 % 0 in /  0.0 mm
14:57 85.5 °F /  29.7 °C 64.8 °F /  18.2 °C 30 in /  1014.8 hPa ENE 6.4 mph /  10.3 km/h 6.4 mph /  10.3 km/h 50 % 0 in /  0.0 mm
15:02 86.2 °F /  30.1 °C 64.8 °F /  18.2 °C 30 in /  1014.8 hPa ESE 10.4 mph /  16.7 km/h 10.4 mph /  16.7 km/h 49 % 0 in /  0.0 mm
15:07 86.5 °F /  30.3 °C 65.1 °F /  18.4 °C 29.9 in /  1013.8 hPa SSE 9.2 mph /  14.8 km/h 9.2 mph /  14.8 km/h 49 % 0 in /  0.0 mm
15:12 87.1 °F /  30.6 °C 64.9 °F /  18.3 °C 29.9 in /  1013.8 hPa SSW 6.9 mph /  11.1 km/h 6.9 mph /  11.1 km/h 48 % 0 in /  0.0 mm
15:17 86.4 °F /  30.2 °C 64.4 °F /  18.0 °C 29.9 in /  1013.8 hPa ESE 12.7 mph /  20.4 km/h 12.7 mph /  20.4 km/h 48 % 0 in /  0.0 mm
15:22 86.7 °F /  30.4 °C 64.8 °F /  18.2 °C 29.9 in /  1013.8 hPa SE 8.1 mph /  13.0 km/h 8.1 mph /  13.0 km/h 48 % 0 in /  0.0 mm
15:27 87.4 °F /  30.8 °C 65.3 °F /  18.5 °C 29.9 in /  1013.8 hPa SSW 8.1 mph /  13.0 km/h 8.1 mph /  13.0 km/h 48 % 0 in /  0.0 mm
15:32 87.4 °F /  30.8 °C 65.3 °F /  18.5 °C 29.9 in /  1013.8 hPa SSE 6.9 mph /  11.1 km/h 6.9 mph /  11.1 km/h 48 % 0 in /  0.0 mm
15:37 87.1 °F /  30.6 °C 64.9 °F /  18.3 °C 29.9 in /  1013.8 hPa SE 6.7 mph /  10.8 km/h 6.7 mph /  10.8 km/h 48 % 0 in /  0.0 mm
15:42 86.4 °F /  30.2 °C 64.4 °F /  18.0 °C 29.9 in /  1013.8 hPa ESE 9.2 mph /  14.8 km/h 9.2 mph /  14.8 km/h 48 % 0 in /  0.0 mm
15:47 86.9 °F /  30.5 °C 64.8 °F /  18.2 °C 29.9 in /  1013.8 hPa ENE 9.2 mph /  14.8 km/h 9.2 mph /  14.8 km/h 48 % 0 in /  0.0 mm
15:52 86.5 °F /  30.3 °C 64.6 °F /  18.1 °C 29.9 in /  1013.8 hPa ENE 11.5 mph /  18.5 km/h 11.5 mph /  18.5 km/h 48 % 0 in /  0.0 mm
15:57 86.9 °F /  30.5 °C 64.2 °F /  17.9 °C 29.9 in /  1013.8 hPa ENE 12.8 mph /  20.6 km/h 12.8 mph /  20.6 km/h 47 % 0 in /  0.0 mm
16:02 86.9 °F /  30.5 °C 64.8 °F /  18.2 °C 29.9 in /  1013.8 hPa ESE 15.2 mph /  24.5 km/h 15.2 mph /  24.5 km/h 48 % 0 in /  0.0 mm
16:07 85.8 °F /  29.9 °C 63.9 °F /  17.7 °C 29.9 in /  1013.8 hPa ENE 13.8 mph /  22.2 km/h 13.8 mph /  22.2 km/h 48 % 0 in /  0.0 mm
16:12 86.2 °F /  30.1 °C 64.2 °F /  17.9 °C 29.9 in /  1013.8 hPa ESE 9.2 mph /  14.8 km/h 9.2 mph /  14.8 km/h 48 % 0 in /  0.0 mm
16:17 86.4 °F /  30.2 °C 64.4 °F /  18.0 °C 29.9 in /  1013.8 hPa East 11.5 mph /  18.5 km/h 11.5 mph /  18.5 km/h 48 % 0 in /  0.0 mm
16:22 85.8 °F /  29.9 °C 63.9 °F /  17.7 °C 29.9 in /  1013.8 hPa ESE 16.1 mph /  25.9 km/h 16.1 mph /  25.9 km/h 48 % 0 in /  0.0 mm
16:27 86 °F /  30.0 °C 64 °F /  17.8 °C 29.9 in /  1013.8 hPa ESE 11.5 mph /  18.5 km/h 11.5 mph /  18.5 km/h 48 % 0 in /  0.0 mm
16:32 85.8 °F /  29.9 °C 63.9 °F /  17.7 °C 29.9 in /  1013.8 hPa East 12.8 mph /  20.6 km/h 12.8 mph /  20.6 km/h 48 % 0 in /  0.0 mm
16:37 85.6 °F /  29.8 °C 63.7 °F /  17.6 °C 29.9 in /  1013.8 hPa NNE 10.4 mph /  16.7 km/h 10.4 mph /  16.7 km/h 48 % 0 in /  0.0 mm
16:42 86.4 °F /  30.2 °C 64.4 °F /  18.0 °C 29.9 in /  1013.8 hPa ESE 9.2 mph /  14.8 km/h 9.2 mph /  14.8 km/h 48 % 0 in /  0.0 mm
16:47 85.8 °F /  29.9 °C 63.9 °F /  17.7 °C 29.9 in /  1013.8 hPa ENE 9.2 mph /  14.8 km/h 9.2 mph /  14.8 km/h 48 % 0 in /  0.0 mm
16:52 85.6 °F /  29.8 °C 63.7 °F /  17.6 °C 29.9 in /  1013.8 hPa SSE 10.2 mph /  16.4 km/h 10.2 mph /  16.4 km/h 48 % 0 in /  0.0 mm
16:57 85.3 °F /  29.6 °C 63.3 °F /  17.4 °C 29.9 in /  1013.8 hPa ENE 9.7 mph /  15.6 km/h 9.7 mph /  15.6 km/h 48 % 0 in /  0.0 mm
17:02 85.5 °F /  29.7 °C 64 °F /  17.8 °C 29.9 in /  1013.8 hPa ESE 11.5 mph /  18.5 km/h 11.5 mph /  18.5 km/h 49 % 0 in /  0.0 mm
17:07 85.1 °F /  29.5 °C 63.9 °F /  17.7 °C 29.9 in /  1013.8 hPa ESE 12.7 mph /  20.4 km/h 12.7 mph /  20.4 km/h 49 % 0 in /  0.0 mm
17:12 84.7 °F /  29.3 °C 63.5 °F /  17.5 °C 29.9 in /  1013.8 hPa ESE 9.2 mph /  14.8 km/h 9.2 mph /  14.8 km/h 49 % 0 in /  0.0 mm
17:17 84.7 °F /  29.3 °C 63.5 °F /  17.5 °C 29.9 in /  1013.8 hPa East 11.5 mph /  18.5 km/h 11.5 mph /  18.5 km/h 49 % 0 in /  0.0 mm
17:22 84.6 °F /  29.2 °C 63.3 °F /  17.4 °C 29.9 in /  1012.8 hPa NNE 10.4 mph /  16.7 km/h 10.4 mph /  16.7 km/h 49 % 0 in /  0.0 mm
17:27 84.9 °F /  29.4 °C 63.7 °F /  17.6 °C 29.9 in /  1012.8 hPa ENE 10 mph /  16.1 km/h 10 mph /  16.1 km/h 49 % 0 in /  0.0 mm
17:32 84.6 °F /  29.2 °C 63.3 °F /  17.4 °C 29.9 in /  1012.8 hPa ESE 8.1 mph /  13.0 km/h 8.1 mph /  13.0 km/h 49 % 0 in /  0.0 mm
17:42 84.4 °F /  29.1 °C 63.1 °F /  17.3 °C 29.9 in /  1013.8 hPa NE 10.4 mph /  16.7 km/h 10.4 mph /  16.7 km/h 49 % 0 in /  0.0 mm
17:47 84 °F /  28.9 °C 63.9 °F /  17.7 °C 29.9 in /  1013.8 hPa SE 12.7 mph /  20.4 km/h 12.7 mph /  20.4 km/h 51 % 0 in /  0.0 mm
17:52 84.2 °F /  29.0 °C 63.5 °F /  17.5 °C 29.9 in /  1012.8 hPa ESE 5.8 mph /  9.3 km/h 5.8 mph /  9.3 km/h 50 % 0 in /  0.0 mm
17:57 84 °F /  28.9 °C 63.9 °F /  17.7 °C 29.9 in /  1012.8 hPa ENE 9.2 mph /  14.8 km/h 9.2 mph /  14.8 km/h 51 % 0 in /  0.0 mm
18:02 83.8 °F /  28.8 °C 63.9 °F /  17.7 °C 29.9 in /  1012.8 hPa ESE 10.5 mph /  16.9 km/h 10.5 mph /  16.9 km/h 51 % 0 in /  0.0 mm
18:09 83.5 °F /  28.6 °C 63.3 °F /  17.4 °C 29.9 in /  1012.8 hPa ESE 9.2 mph /  14.8 km/h 9.2 mph /  14.8 km/h 51 % 0 in /  0.0 mm
18:14 83.5 °F /  28.6 °C 63.3 °F /  17.4 °C 29.9 in /  1012.8 hPa East 9.2 mph /  14.8 km/h 9.2 mph /  14.8 km/h 51 % 0 in /  0.0 mm
18:19 83.5 °F /  28.6 °C 63.3 °F /  17.4 °C 29.9 in /  1012.8 hPa ESE 11.5 mph /  18.5 km/h 11.5 mph /  18.5 km/h 51 % 0 in /  0.0 mm
18:24 83.3 °F /  28.5 °C 63.3 °F /  17.4 °C 29.9 in /  1012.8 hPa ESE 11.5 mph /  18.5 km/h 11.5 mph /  18.5 km/h 51 % 0 in /  0.0 mm
18:29 82.8 °F /  28.2 °C 63.3 °F /  17.4 °C 29.9 in /  1012.8 hPa ESE 13.8 mph /  22.2 km/h 13.8 mph /  22.2 km/h 52 % 0 in /  0.0 mm
18:34 82.8 °F /  28.2 °C 63.3 °F /  17.4 °C 29.9 in /  1012.8 hPa ESE 11.5 mph /  18.5 km/h 11.5 mph /  18.5 km/h 52 % 0 in /  0.0 mm
18:39 82.8 °F /  28.2 °C 63.3 °F /  17.4 °C 29.9 in /  1012.8 hPa ESE 11.2 mph /  18.0 km/h 11.2 mph /  18.0 km/h 52 % 0 in /  0.0 mm
18:49 82 °F /  27.8 °C 63.1 °F /  17.3 °C 29.9 in /  1012.8 hPa ESE 8.1 mph /  13.0 km/h 8.1 mph /  13.0 km/h 53 % 0 in /  0.0 mm
18:54 82 °F /  27.8 °C 63.1 °F /  17.3 °C 29.9 in /  1012.8 hPa ENE 9.2 mph /  14.8 km/h 9.2 mph /  14.8 km/h 53 % 0 in /  0.0 mm
18:59 82.2 °F /  27.9 °C 63.3 °F /  17.4 °C 29.9 in /  1012.8 hPa East 9.2 mph /  14.8 km/h 9.2 mph /  14.8 km/h 53 % 0 in /  0.0 mm
19:04 82.4 °F /  28.0 °C 63.5 °F /  17.5 °C 29.9 in /  1012.8 hPa ENE 8.1 mph /  13.0 km/h 8.1 mph /  13.0 km/h 53 % 0 in /  0.0 mm
19:09 82.2 °F /  27.9 °C 63.9 °F /  17.7 °C 29.9 in /  1012.8 hPa NNE 6.2 mph /  10.0 km/h 6.2 mph /  10.0 km/h 54 % 0 in /  0.0 mm
19:10 73.2 °F /  22.9 °C 66.4 °F /  19.1 °C 30 in /  1015.8 hPa NE 2 mph /  3.2 km/h 3 mph /  4.8 km/h 79 % 0 in /  0.0 mm
19:14 82 °F /  27.8 °C 63.9 °F /  17.7 °C 29.9 in /  1012.8 hPa ENE 9.2 mph /  14.8 km/h 9.2 mph /  14.8 km/h 54 % 0 in /  0.0 mm
19:19 81.9 °F /  27.7 °C 63.7 °F /  17.6 °C 29.9 in /  1012.8 hPa NNE 6.9 mph /  11.1 km/h 7.1 mph /  11.4 km/h 54 % 0 in /  0.0 mm
19:20 73 °F /  22.8 °C 66.6 °F /  19.2 °C 30 in /  1015.8 hPa ENE 3 mph /  4.8 km/h 4 mph /  6.4 km/h 80 % 0 in /  0.0 mm
19:24 81.9 °F /  27.7 °C 64 °F /  17.8 °C 29.9 in /  1012.8 hPa ESE 5.8 mph /  9.3 km/h 5.8 mph /  9.3 km/h 55 % 0 in /  0.0 mm
19:29 82 °F /  27.8 °C 64.2 °F /  17.9 °C 29.9 in /  1012.8 hPa ENE 4.6 mph /  7.4 km/h 4.6 mph /  7.4 km/h 55 % 0 in /  0.0 mm
19:30 73 °F /  22.8 °C 66.6 °F /  19.2 °C 30 in /  1015.8 hPa ENE 2 mph /  3.2 km/h 3 mph /  4.8 km/h 80 % 0 in /  0.0 mm
19:34 81.7 °F /  27.6 °C 63.9 °F /  17.7 °C 29.9 in /  1012.8 hPa SE 5.8 mph /  9.3 km/h 5.8 mph /  9.3 km/h 55 % 0 in /  0.0 mm
19:39 81.7 °F /  27.6 °C 63.9 °F /  17.7 °C 29.9 in /  1012.8 hPa ENE 5.8 mph /  9.3 km/h 5.8 mph /  9.3 km/h 55 % 0 in /  0.0 mm
19:40 73 °F /  22.8 °C 66.9 °F /  19.4 °C 30 in /  1015.8 hPa East 2 mph /  3.2 km/h 5 mph /  8.0 km/h 81 % 0 in /  0.0 mm
19:44 81 °F /  27.2 °C 63.9 °F /  17.7 °C 29.9 in /  1012.8 hPa ENE 6.9 mph /  11.1 km/h 6.9 mph /  11.1 km/h 56 % 0 in /  0.0 mm
19:49 81 °F /  27.2 °C 64.2 °F /  17.9 °C 29.9 in /  1013.8 hPa NE 4.6 mph /  7.4 km/h 4.6 mph /  7.4 km/h 57 % 0 in /  0.0 mm
19:50 72.9 °F /  22.7 °C 66.7 °F /  19.3 °C 30 in /  1015.8 hPa East 2 mph /  3.2 km/h 3 mph /  4.8 km/h 81 % 0 in /  0.0 mm
19:54 80.6 °F /  27.0 °C 64 °F /  17.8 °C 29.9 in /  1013.8 hPa ESE 8.1 mph /  13.0 km/h 8.1 mph /  13.0 km/h 57 % 0 in /  0.0 mm
19:59 80.6 °F /  27.0 °C 64 °F /  17.8 °C 29.9 in /  1013.8 hPa East 5.8 mph /  9.3 km/h 5.8 mph /  9.3 km/h 57 % 0 in /  0.0 mm
20:00 72.7 °F /  22.6 °C 66.2 °F /  19.0 °C 30 in /  1015.8 hPa ENE 1 mph /  1.6 km/h 3 mph /  4.8 km/h 80 % 0 in /  0.0 mm
20:04 80.6 °F /  27.0 °C 64 °F /  17.8 °C 29.9 in /  1013.8 hPa ENE 3.5 mph /  5.6 km/h 3.5 mph /  5.6 km/h 57 % 0 in /  0.0 mm
20:09 80.2 °F /  26.8 °C 64 °F /  17.8 °C 29.9 in /  1013.8 hPa ESE 6.9 mph /  11.1 km/h 6.9 mph /  11.1 km/h 58 % 0 in /  0.0 mm
20:10 72.5 °F /  22.5 °C 66.4 °F /  19.1 °C 30 in /  1015.8 hPa Calm   2 mph /  3.2 km/h 81 % 0 in /  0.0 mm
20:14 80.1 °F /  26.7 °C 64.4 °F /  18.0 °C 29.9 in /  1013.8 hPa SE 5.8 mph /  9.3 km/h 5.8 mph /  9.3 km/h 59 % 0 in /  0.0 mm
20:19 79.9 °F /  26.6 °C 64.2 °F /  17.9 °C 29.9 in /  1013.8 hPa East 6 mph /  9.7 km/h 6 mph /  9.7 km/h 59 % 0 in /  0.0 mm
20:20 72.5 °F /  22.5 °C 66.4 °F /  19.1 °C 30 in /  1015.8 hPa NE 1 mph /  1.6 km/h 2 mph /  3.2 km/h 81 % 0 in /  0.0 mm
20:24 79.5 °F /  26.4 °C 63.9 °F /  17.7 °C 29.9 in /  1013.8 hPa SSE 5.8 mph /  9.3 km/h 5.9 mph /  9.5 km/h 59 % 0 in /  0.0 mm
20:29 79.2 °F /  26.2 °C 64 °F /  17.8 °C 29.9 in /  1013.8 hPa ESE 6.9 mph /  11.1 km/h 6.9 mph /  11.1 km/h 60 % 0 in /  0.0 mm
20:30 72.5 °F /  22.5 °C 66.4 °F /  19.1 °C 30 in /  1015.8 hPa NNE 2 mph /  3.2 km/h 3 mph /  4.8 km/h 81 % 0 in /  0.0 mm
20:34 79.2 °F /  26.2 °C 64.6 °F /  18.1 °C 29.9 in /  1013.8 hPa ENE 6.9 mph /  11.1 km/h 6.9 mph /  11.1 km/h 61 % 0 in /  0.0 mm
20:39 78.8 °F /  26.0 °C 64.8 °F /  18.2 °C 29.9 in /  1013.8 hPa ENE 5.8 mph /  9.3 km/h 5.8 mph /  9.3 km/h 62 % 0 in /  0.0 mm
20:40 72.1 °F /  22.3 °C 66 °F /  18.9 °C 30 in /  1015.8 hPa NNE 2 mph /  3.2 km/h 3 mph /  4.8 km/h 81 % 0 in /  0.0 mm
20:44 78.6 °F /  25.9 °C 64.6 °F /  18.1 °C 29.9 in /  1013.8 hPa ESE 4.6 mph /  7.4 km/h 4.6 mph /  7.4 km/h 62 % 0 in /  0.0 mm
20:49 78.4 °F /  25.8 °C 64.8 °F /  18.2 °C 29.9 in /  1013.8 hPa ESE 4.6 mph /  7.4 km/h 4.6 mph /  7.4 km/h 63 % 0 in /  0.0 mm
20:50 72.1 °F /  22.3 °C 66 °F /  18.9 °C 30 in /  1014.8 hPa NNE 1 mph /  1.6 km/h 3 mph /  4.8 km/h 81 % 0 in /  0.0 mm
20:54 78.3 °F /  25.7 °C 64.6 °F /  18.1 °C 29.9 in /  1013.8 hPa ENE 4.7 mph /  7.6 km/h 4.7 mph /  7.6 km/h 63 % 0 in /  0.0 mm
20:58 78.1 °F /  25.6 °C 64.6 °F /  18.1 °C 29.9 in /  1013.8 hPa ENE 5.9 mph /  9.5 km/h 5.9 mph /  9.5 km/h 63 % 0 in /  0.0 mm
21:00 72 °F /  22.2 °C 65.8 °F /  18.8 °C 30 in /  1014.8 hPa NNE 1 mph /  1.6 km/h 2 mph /  3.2 km/h 81 % 0 in /  0.0 mm
21:03 77.7 °F /  25.4 °C 64.6 °F /  18.1 °C 29.9 in /  1013.8 hPa ENE 3.8 mph /  6.1 km/h 3.8 mph /  6.1 km/h 64 % 0 in /  0.0 mm
21:08 77.5 °F /  25.3 °C 64.8 °F /  18.2 °C 29.9 in /  1013.8 hPa ENE 6.9 mph /  11.1 km/h 6.9 mph /  11.1 km/h 65 % 0 in /  0.0 mm
21:10 71.8 °F /  22.1 °C 66 °F /  18.9 °C 30 in /  1015.8 hPa NNE 2 mph /  3.2 km/h 2 mph /  3.2 km/h 82 % 0 in /  0.0 mm
21:13 77.2 °F /  25.1 °C 64.6 °F /  18.1 °C 29.9 in /  1013.8 hPa East 5.8 mph /  9.3 km/h 5.8 mph /  9.3 km/h 65 % 0 in /  0.0 mm
21:18 77 °F /  25.0 °C 64.8 °F /  18.2 °C 29.9 in /  1013.8 hPa ENE 5.8 mph /  9.3 km/h 5.8 mph /  9.3 km/h 66 % 0 in /  0.0 mm
21:20 71.6 °F /  22.0 °C 65.8 °F /  18.8 °C 30 in /  1015.8 hPa Calm   1 mph /  1.6 km/h 82 % 0 in /  0.0 mm
21:23 76.8 °F /  24.9 °C 65.5 °F /  18.6 °C 29.9 in /  1013.8 hPa East 4.6 mph /  7.4 km/h 4.6 mph /  7.4 km/h 68 % 0 in /  0.0 mm
21:28 76.6 °F /  24.8 °C 65.7 °F /  18.7 °C 29.9 in /  1013.8 hPa ESE 6.9 mph /  11.1 km/h 6.9 mph /  11.1 km/h 69 % 0 in /  0.0 mm
21:30 71.6 °F /  22.0 °C 65.8 °F /  18.8 °C 30 in /  1015.8 hPa Calm   2 mph /  3.2 km/h 82 % 0 in /  0.0 mm
21:33 76.5 °F /  24.7 °C 65.8 °F /  18.8 °C 29.9 in /  1013.8 hPa ENE 5.8 mph /  9.3 km/h 5.8 mph /  9.3 km/h 70 % 0 in /  0.0 mm
21:38 76.3 °F /  24.6 °C 65.8 °F /  18.8 °C 29.9 in /  1013.8 hPa ENE 6.9 mph /  11.1 km/h 6.9 mph /  11.1 km/h 70 % 0 in /  0.0 mm
21:40 71.4 °F /  21.9 °C 66 °F /  18.9 °C 30 in /  1015.8 hPa Calm   1 mph /  1.6 km/h 83 % 0 in /  0.0 mm
21:43 76.1 °F /  24.5 °C 65.7 °F /  18.7 °C 29.9 in /  1013.8 hPa ESE 3.5 mph /  5.6 km/h 3.5 mph /  5.6 km/h 70 % 0 in /  0.0 mm
21:48 75.9 °F /  24.4 °C 65.5 °F /  18.6 °C 29.9 in /  1013.8 hPa East 6 mph /  9.7 km/h 6 mph /  9.7 km/h 70 % 0 in /  0.0 mm
21:50 71.2 °F /  21.8 °C 65.8 °F /  18.8 °C 30 in /  1015.8 hPa NNE 1 mph /  1.6 km/h 1 mph /  1.6 km/h 83 % 0 in /  0.0 mm
21:53 75.9 °F /  24.4 °C 65.8 °F /  18.8 °C 29.9 in /  1013.8 hPa ESE 6.9 mph /  11.1 km/h 6.9 mph /  11.1 km/h 71 % 0 in /  0.0 mm
21:58 75.7 °F /  24.3 °C 66 °F /  18.9 °C 29.9 in /  1013.8 hPa ENE 4.6 mph /  7.4 km/h 4.6 mph /  7.4 km/h 72 % 0 in /  0.0 mm
22:00 71.1 °F /  21.7 °C 65.7 °F /  18.7 °C 30 in /  1015.8 hPa Calm     83 % 0 in /  0.0 mm
22:03 75.6 °F /  24.2 °C 65.8 °F /  18.8 °C 29.9 in /  1013.8 hPa ESE 4.6 mph /  7.4 km/h 4.6 mph /  7.4 km/h 72 % 0 in /  0.0 mm
22:08 75.6 °F /  24.2 °C 66.4 °F /  19.1 °C 30 in /  1014.8 hPa ENE 4.6 mph /  7.4 km/h 4.6 mph /  7.4 km/h 73 % 0 in /  0.0 mm
22:10 70.9 °F /  21.6 °C 65.5 °F /  18.6 °C 30 in /  1015.8 hPa Calm     83 % 0 in /  0.0 mm
22:13 75.4 °F /  24.1 °C 66 °F /  18.9 °C 30 in /  1014.8 hPa East 5.9 mph /  9.5 km/h 5.9 mph /  9.5 km/h 73 % 0 in /  0.0 mm
22:18 75.2 °F /  24.0 °C 66.4 °F /  19.1 °C 30 in /  1014.8 hPa East 5.8 mph /  9.3 km/h 5.8 mph /  9.3 km/h 74 % 0 in /  0.0 mm
22:20 70.7 °F /  21.5 °C 65.3 °F /  18.5 °C 30 in /  1015.8 hPa Calm     83 % 0 in /  0.0 mm
22:23 75.2 °F /  24.0 °C 66.4 °F /  19.1 °C 30 in /  1014.8 hPa ESE 6.9 mph /  11.1 km/h 6.9 mph /  11.1 km/h 74 % 0 in /  0.0 mm
22:28 75.2 °F /  24.0 °C 66.7 °F /  19.3 °C 30 in /  1014.8 hPa ESE 5.8 mph /  9.3 km/h 5.8 mph /  9.3 km/h 75 % 0 in /  0.0 mm
22:30 70.5 °F /  21.4 °C 65.5 °F /  18.6 °C 30 in /  1015.8 hPa Calm   1 mph /  1.6 km/h 84 % 0 in /  0.0 mm
22:33 75 °F /  23.9 °C 66.6 °F /  19.2 °C 30 in /  1014.8 hPa NNE 3.5 mph /  5.6 km/h 3.5 mph /  5.6 km/h 75 % 0 in /  0.0 mm
22:38 74.8 °F /  23.8 °C 66.4 °F /  19.1 °C 30 in /  1014.8 hPa East 3.5 mph /  5.6 km/h 3.5 mph /  5.6 km/h 75 % 0 in /  0.0 mm
22:40 70.3 °F /  21.3 °C 65.3 °F /  18.5 °C 30 in /  1015.8 hPa ENE 1 mph /  1.6 km/h 2 mph /  3.2 km/h 84 % 0 in /  0.0 mm
22:43 74.7 °F /  23.7 °C 66.2 °F /  19.0 °C 30 in /  1014.8 hPa ESE 5.8 mph /  9.3 km/h 5.8 mph /  9.3 km/h 75 % 0 in /  0.0 mm
22:48 74.7 °F /  23.7 °C 66.2 °F /  19.0 °C 30 in /  1014.8 hPa East 4.6 mph /  7.4 km/h 4.6 mph /  7.4 km/h 75 % 0 in /  0.0 mm
22:50 70.2 °F /  21.2 °C 65.1 °F /  18.4 °C 30 in /  1014.8 hPa ENE 1 mph /  1.6 km/h 1 mph /  1.6 km/h 84 % 0 in /  0.0 mm
22:53 74.5 °F /  23.6 °C 66 °F /  18.9 °C 30 in /  1015.8 hPa ENE 5.8 mph /  9.3 km/h 5.8 mph /  9.3 km/h 75 % 0 in /  0.0 mm
22:58 74.5 °F /  23.6 °C 66.4 °F /  19.1 °C 30 in /  1015.8 hPa ENE 4.7 mph /  7.6 km/h 4.7 mph /  7.6 km/h 76 % 0 in /  0.0 mm
23:00 70.2 °F /  21.2 °C 65.1 °F /  18.4 °C 30 in /  1014.8 hPa Calm     84 % 0 in /  0.0 mm
23:03 74.5 °F /  23.6 °C 66.4 °F /  19.1 °C 30 in /  1015.8 hPa East 5.8 mph /  9.3 km/h 5.8 mph /  9.3 km/h 76 % 0 in /  0.0 mm
23:08 74.3 °F /  23.5 °C 66.2 °F /  19.0 °C 30 in /  1014.8 hPa ENE 2.4 mph /  3.9 km/h 2.4 mph /  3.9 km/h 76 % 0 in /  0.0 mm
23:10 70 °F /  21.1 °C 64.9 °F /  18.3 °C 30 in /  1014.8 hPa Calm     84 % 0 in /  0.0 mm
23:13 74.3 °F /  23.5 °C 66.2 °F /  19.0 °C 30 in /  1014.8 hPa NE 2.4 mph /  3.9 km/h 2.6 mph /  4.2 km/h 76 % 0 in /  0.0 mm
23:18 74.1 °F /  23.4 °C 66 °F /  18.9 °C 30 in /  1015.8 hPa NNE 2.3 mph /  3.7 km/h 2.4 mph /  3.9 km/h 76 % 0 in /  0.0 mm
23:20 69.8 °F /  21.0 °C 64.8 °F /  18.2 °C 30 in /  1014.8 hPa ENE 1 mph /  1.6 km/h 2 mph /  3.2 km/h 84 % 0 in /  0.0 mm
23:23 73.9 °F /  23.3 °C 65.8 °F /  18.8 °C 30 in /  1015.8 hPa ENE 4.6 mph /  7.4 km/h 4.6 mph /  7.4 km/h 76 % 0 in /  0.0 mm
23:28 73.9 °F /  23.3 °C 65.8 °F /  18.8 °C 30 in /  1015.8 hPa NE 3.5 mph /  5.6 km/h 3.5 mph /  5.6 km/h 76 % 0 in /  0.0 mm
23:30 69.6 °F /  20.9 °C 64.6 °F /  18.1 °C 30 in /  1014.8 hPa NE 1 mph /  1.6 km/h 1 mph /  1.6 km/h 84 % 0 in /  0.0 mm
23:33 73.8 °F /  23.2 °C 65.7 °F /  18.7 °C 30 in /  1015.8 hPa NNE 3.5 mph /  5.6 km/h 3.5 mph /  5.6 km/h 76 % 0 in /  0.0 mm
23:38 73.6 °F /  23.1 °C 65.8 °F /  18.8 °C 30 in /  1015.8 hPa ENE 3.5 mph /  5.6 km/h 3.5 mph /  5.6 km/h 77 % 0 in /  0.0 mm
23:40 69.4 °F /  20.8 °C 64.4 °F /  18.0 °C 30 in /  1015.8 hPa Calm     84 % 0 in /  0.0 mm
23:43 73.6 °F /  23.1 °C 65.8 °F /  18.8 °C 30 in /  1015.8 hPa ENE 3.5 mph /  5.6 km/h 3.5 mph /  5.6 km/h 77 % 0 in /  0.0 mm
23:48 73.6 °F /  23.1 °C 65.8 °F /  18.8 °C 30 in /  1015.8 hPa NE 3.5 mph /  5.6 km/h 3.5 mph /  5.6 km/h 77 % 0 in /  0.0 mm
23:50 69.1 °F /  20.6 °C 64 °F /  17.8 °C 30 in /  1015.8 hPa SE 1 mph /  1.6 km/h 2 mph /  3.2 km/h 84 % 0 in /  0.0 mm
23:53 73.4 °F /  23.0 °C 65.7 °F /  18.7 °C 30 in /  1015.8 hPa NE 4.6 mph /  7.4 km/h 4.6 mph /  7.4 km/h 77 % 0 in /  0.0 mm
Meteo Sesrovires
Elogis d' Weather Underground - 3.75 mb

Guio original per  Jim McMurry - jmcmurry@mwt.net Adaptat per a la plantilla per  Wim van der Kuil - Leuven-Template.eu

Trobareu la nostra informacio del temps tambe a:

Weather Underground

AWEKAS